sensor_id;sensor_type;location;lat;lon;timestamp;pressure;altitude;pressure_sealevel;temperature;humidity
39793;BME280;26080;42.264;24.536;2024-02-26T00:02:14;98926.44;;;8.90;100.00
39793;BME280;26080;42.264;24.536;2024-02-26T00:04:40;98929.34;;;8.84;100.00
39793;BME280;26080;42.264;24.536;2024-02-26T00:07:05;98933.81;;;8.82;100.00
39793;BME280;26080;42.264;24.536;2024-02-26T00:09:31;98929.50;;;8.81;100.00
39793;BME280;26080;42.264;24.536;2024-02-26T00:11:56;98922.66;;;8.78;100.00
39793;BME280;26080;42.264;24.536;2024-02-26T00:14:23;98907.75;;;8.61;100.00
39793;BME280;26080;42.264;24.536;2024-02-26T00:16:48;98938.75;;;8.88;100.00
39793;BME280;26080;42.264;24.536;2024-02-26T00:19:13;98933.16;;;8.96;100.00
39793;BME280;26080;42.264;24.536;2024-02-26T00:21:41;98942.78;;;8.95;100.00
39793;BME280;26080;42.264;24.536;2024-02-26T00:24:09;98914.47;;;8.86;100.00
39793;BME280;26080;42.264;24.536;2024-02-26T00:26:34;98939.03;;;9.01;100.00
39793;BME280;26080;42.264;24.536;2024-02-26T00:29:00;98937.31;;;9.18;100.00
39793;BME280;26080;42.264;24.536;2024-02-26T00:31:25;98936.88;;;9.28;100.00
39793;BME280;26080;42.264;24.536;2024-02-26T00:33:51;98930.13;;;9.05;100.00
39793;BME280;26080;42.264;24.536;2024-02-26T00:36:16;98926.34;;;8.93;100.00
39793;BME280;26080;42.264;24.536;2024-02-26T00:38:43;98935.66;;;8.80;100.00
39793;BME280;26080;42.264;24.536;2024-02-26T00:41:10;98929.78;;;8.75;100.00
39793;BME280;26080;42.264;24.536;2024-02-26T00:43:35;98907.28;;;8.53;100.00
39793;BME280;26080;42.264;24.536;2024-02-26T00:46:03;98921.88;;;8.57;100.00
39793;BME280;26080;42.264;24.536;2024-02-26T00:48:28;98914.31;;;8.51;100.00
39793;BME280;26080;42.264;24.536;2024-02-26T00:50:54;98894.06;;;8.56;100.00
39793;BME280;26080;42.264;24.536;2024-02-26T00:53:19;98867.06;;;8.57;100.00
39793;BME280;26080;42.264;24.536;2024-02-26T00:55:45;98857.19;;;8.64;100.00
39793;BME280;26080;42.264;24.536;2024-02-26T00:58:10;98874.69;;;8.81;100.00
39793;BME280;26080;42.264;24.536;2024-02-26T01:00:35;98883.06;;;8.87;100.00
39793;BME280;26080;42.264;24.536;2024-02-26T01:03:01;98876.78;;;8.92;100.00
39793;BME280;26080;42.264;24.536;2024-02-26T01:05:27;98865.06;;;9.17;100.00
39793;BME280;26080;42.264;24.536;2024-02-26T01:07:52;98866.81;;;9.36;100.00
39793;BME280;26080;42.264;24.536;2024-02-26T01:10:18;98879.19;;;9.49;100.00
39793;BME280;26080;42.264;24.536;2024-02-26T01:12:43;98894.03;;;9.49;100.00
39793;BME280;26080;42.264;24.536;2024-02-26T01:15:09;98881.47;;;9.21;100.00
39793;BME280;26080;42.264;24.536;2024-02-26T01:17:35;98888.72;;;9.14;100.00
39793;BME280;26080;42.264;24.536;2024-02-26T01:20:00;98846.94;;;9.14;100.00
39793;BME280;26080;42.264;24.536;2024-02-26T01:22:25;98844.56;;;9.10;100.00
39793;BME280;26080;42.264;24.536;2024-02-26T01:24:51;98864.28;;;9.15;100.00
39793;BME280;26080;42.264;24.536;2024-02-26T01:27:16;98873.75;;;9.18;100.00
39793;BME280;26080;42.264;24.536;2024-02-26T01:29:42;98839.25;;;9.11;100.00
39793;BME280;26080;42.264;24.536;2024-02-26T01:32:07;98815.75;;;9.11;100.00
39793;BME280;26080;42.264;24.536;2024-02-26T01:34:33;98806.81;;;9.15;100.00
39793;BME280;26080;42.264;24.536;2024-02-26T01:36:59;98833.88;;;9.32;100.00
39793;BME280;26080;42.264;24.536;2024-02-26T01:39:24;98845.25;;;9.31;100.00
39793;BME280;26080;42.264;24.536;2024-02-26T01:41:49;98857.72;;;9.43;100.00
39793;BME280;26080;42.264;24.536;2024-02-26T01:44:15;98822.44;;;9.34;100.00
39793;BME280;26080;42.264;24.536;2024-02-26T01:46:41;98858.44;;;9.46;100.00
39793;BME280;26080;42.264;24.536;2024-02-26T01:49:08;98857.75;;;9.60;100.00
39793;BME280;26080;42.264;24.536;2024-02-26T01:51:37;98852.66;;;9.74;100.00
39793;BME280;26080;42.264;24.536;2024-02-26T01:54:04;98852.00;;;9.87;100.00
39793;BME280;26080;42.264;24.536;2024-02-26T01:56:30;98841.13;;;9.78;100.00
39793;BME280;26080;42.264;24.536;2024-02-26T01:58:59;98851.16;;;9.86;100.00
39793;BME280;26080;42.264;24.536;2024-02-26T02:01:25;98845.25;;;9.83;100.00
39793;BME280;26080;42.264;24.536;2024-02-26T02:03:52;98846.44;;;9.77;100.00
39793;BME280;26080;42.264;24.536;2024-02-26T02:06:18;98858.03;;;9.71;100.00
39793;BME280;26080;42.264;24.536;2024-02-26T02:08:44;98839.28;;;9.63;100.00
39793;BME280;26080;42.264;24.536;2024-02-26T02:11:10;98863.88;;;9.76;100.00
39793;BME280;26080;42.264;24.536;2024-02-26T02:13:37;98835.19;;;9.58;100.00
39793;BME280;26080;42.264;24.536;2024-02-26T02:16:03;98866.97;;;9.67;100.00
39793;BME280;26080;42.264;24.536;2024-02-26T02:18:29;98875.28;;;9.75;100.00
39793;BME280;26080;42.264;24.536;2024-02-26T02:20:54;98866.50;;;9.76;100.00
39793;BME280;26080;42.264;24.536;2024-02-26T02:23:21;98856.09;;;9.58;100.00
39793;BME280;26080;42.264;24.536;2024-02-26T02:25:47;98840.19;;;9.45;100.00
39793;BME280;26080;42.264;24.536;2024-02-26T02:28:12;98859.88;;;9.69;100.00
39793;BME280;26080;42.264;24.536;2024-02-26T02:30:38;98839.75;;;9.54;100.00
39793;BME280;26080;42.264;24.536;2024-02-26T02:33:04;98862.91;;;9.62;100.00
39793;BME280;26080;42.264;24.536;2024-02-26T02:35:30;98858.28;;;9.49;100.00
39793;BME280;26080;42.264;24.536;2024-02-26T02:37:57;98854.25;;;9.42;100.00
39793;BME280;26080;42.264;24.536;2024-02-26T02:40:23;98856.63;;;9.30;100.00
39793;BME280;26080;42.264;24.536;2024-02-26T02:42:48;98850.88;;;9.23;100.00
39793;BME280;26080;42.264;24.536;2024-02-26T02:45:14;98817.03;;;9.03;100.00
39793;BME280;26080;42.264;24.536;2024-02-26T02:47:39;98853.84;;;9.15;100.00
39793;BME280;26080;42.264;24.536;2024-02-26T02:50:05;98848.00;;;9.10;100.00
39793;BME280;26080;42.264;24.536;2024-02-26T02:52:30;98829.06;;;8.88;100.00
39793;BME280;26080;42.264;24.536;2024-02-26T02:54:56;98855.22;;;9.05;100.00
39793;BME280;26080;42.264;24.536;2024-02-26T02:57:21;98843.38;;;8.98;100.00
39793;BME280;26080;42.264;24.536;2024-02-26T02:59:47;98852.81;;;9.01;100.00
39793;BME280;26080;42.264;24.536;2024-02-26T03:02:13;98848.59;;;8.98;100.00
39793;BME280;26080;42.264;24.536;2024-02-26T03:04:38;98852.56;;;8.88;100.00
39793;BME280;26080;42.264;24.536;2024-02-26T03:07:04;98845.72;;;8.85;100.00
39793;BME280;26080;42.264;24.536;2024-02-26T03:09:29;98841.66;;;8.80;100.00
39793;BME280;26080;42.264;24.536;2024-02-26T03:11:55;98851.38;;;8.76;100.00
39793;BME280;26080;42.264;24.536;2024-02-26T03:14:20;98844.06;;;8.66;100.00
39793;BME280;26080;42.264;24.536;2024-02-26T03:16:45;98859.16;;;8.59;100.00
39793;BME280;26080;42.264;24.536;2024-02-26T03:19:14;98863.16;;;8.47;100.00
39793;BME280;26080;42.264;24.536;2024-02-26T03:21:39;98839.56;;;8.30;100.00
39793;BME280;26080;42.264;24.536;2024-02-26T03:24:05;98865.38;;;8.38;100.00
39793;BME280;26080;42.264;24.536;2024-02-26T03:26:31;98871.53;;;8.35;100.00
39793;BME280;26080;42.264;24.536;2024-02-26T03:28:56;98869.84;;;8.34;100.00
39793;BME280;26080;42.264;24.536;2024-02-26T03:31:22;98856.28;;;8.26;100.00
39793;BME280;26080;42.264;24.536;2024-02-26T03:33:47;98844.34;;;8.20;100.00
39793;BME280;26080;42.264;24.536;2024-02-26T03:36:13;98867.34;;;8.31;100.00
39793;BME280;26080;42.264;24.536;2024-02-26T03:38:38;98859.44;;;8.14;100.00
39793;BME280;26080;42.264;24.536;2024-02-26T03:41:04;98857.53;;;8.17;100.00
39793;BME280;26080;42.264;24.536;2024-02-26T03:43:29;98861.28;;;8.12;100.00
39793;BME280;26080;42.264;24.536;2024-02-26T03:45:55;98869.25;;;8.09;100.00
39793;BME280;26080;42.264;24.536;2024-02-26T03:48:20;98866.97;;;8.01;100.00
39793;BME280;26080;42.264;24.536;2024-02-26T03:50:46;98855.38;;;7.88;100.00
39793;BME280;26080;42.264;24.536;2024-02-26T03:53:11;98868.94;;;7.96;100.00
39793;BME280;26080;42.264;24.536;2024-02-26T03:55:38;98865.72;;;7.89;100.00
39793;BME280;26080;42.264;24.536;2024-02-26T03:58:03;98857.44;;;7.80;100.00
39793;BME280;26080;42.264;24.536;2024-02-26T04:00:29;98880.59;;;7.87;100.00
39793;BME280;26080;42.264;24.536;2024-02-26T04:02:55;98873.69;;;7.86;100.00
39793;BME280;26080;42.264;24.536;2024-02-26T04:05:21;98879.03;;;7.83;100.00
39793;BME280;26080;42.264;24.536;2024-02-26T04:07:46;98878.28;;;7.80;100.00
39793;BME280;26080;42.264;24.536;2024-02-26T04:10:12;98873.09;;;7.80;100.00
39793;BME280;26080;42.264;24.536;2024-02-26T04:12:41;98868.41;;;7.88;100.00
39793;BME280;26080;42.264;24.536;2024-02-26T04:15:10;98879.47;;;7.93;100.00
39793;BME280;26080;42.264;24.536;2024-02-26T04:17:36;98883.97;;;7.89;100.00
39793;BME280;26080;42.264;24.536;2024-02-26T04:20:03;98875.00;;;7.96;100.00
39793;BME280;26080;42.264;24.536;2024-02-26T04:22:30;98879.28;;;7.97;100.00
39793;BME280;26080;42.264;24.536;2024-02-26T04:24:56;98874.25;;;7.93;100.00
39793;BME280;26080;42.264;24.536;2024-02-26T04:27:21;98847.44;;;7.70;100.00
39793;BME280;26080;42.264;24.536;2024-02-26T04:29:47;98867.56;;;7.87;100.00
39793;BME280;26080;42.264;24.536;2024-02-26T04:32:15;98869.31;;;7.87;100.00
39793;BME280;26080;42.264;24.536;2024-02-26T04:34:41;98865.25;;;7.80;100.00
39793;BME280;26080;42.264;24.536;2024-02-26T04:37:07;98875.50;;;7.64;100.00
39793;BME280;26080;42.264;24.536;2024-02-26T04:39:32;98849.38;;;7.45;100.00
39793;BME280;26080;42.264;24.536;2024-02-26T04:41:58;98890.75;;;7.73;100.00
39793;BME280;26080;42.264;24.536;2024-02-26T04:44:23;98889.00;;;7.73;100.00
39793;BME280;26080;42.264;24.536;2024-02-26T04:46:48;98884.50;;;7.77;100.00
39793;BME280;26080;42.264;24.536;2024-02-26T04:49:14;98888.34;;;7.89;100.00
39793;BME280;26080;42.264;24.536;2024-02-26T04:51:39;98890.56;;;7.98;100.00
39793;BME280;26080;42.264;24.536;2024-02-26T04:54:05;98893.03;;;8.01;100.00
39793;BME280;26080;42.264;24.536;2024-02-26T04:56:30;98899.72;;;8.07;100.00
39793;BME280;26080;42.264;24.536;2024-02-26T04:58:56;98893.84;;;8.22;100.00
39793;BME280;26080;42.264;24.536;2024-02-26T05:01:21;98889.53;;;8.21;100.00
39793;BME280;26080;42.264;24.536;2024-02-26T05:03:47;98899.44;;;8.33;100.00
39793;BME280;26080;42.264;24.536;2024-02-26T05:06:12;98886.16;;;8.19;100.00
39793;BME280;26080;42.264;24.536;2024-02-26T05:08:38;98903.78;;;8.14;100.00
39793;BME280;26080;42.264;24.536;2024-02-26T05:11:04;98897.94;;;8.09;100.00
39793;BME280;26080;42.264;24.536;2024-02-26T05:13:29;98894.66;;;8.03;100.00
39793;BME280;26080;42.264;24.536;2024-02-26T05:15:55;98902.34;;;8.07;100.00
39793;BME280;26080;42.264;24.536;2024-02-26T05:18:22;98906.53;;;8.11;100.00
39793;BME280;26080;42.264;24.536;2024-02-26T05:20:47;98904.84;;;8.10;100.00
39793;BME280;26080;42.264;24.536;2024-02-26T05:23:13;98913.50;;;8.10;100.00
39793;BME280;26080;42.264;24.536;2024-02-26T05:25:39;98916.19;;;8.09;100.00
39793;BME280;26080;42.264;24.536;2024-02-26T05:28:04;98907.56;;;8.07;100.00
39793;BME280;26080;42.264;24.536;2024-02-26T05:30:30;98907.47;;;8.08;100.00
39793;BME280;26080;42.264;24.536;2024-02-26T05:32:55;98902.22;;;8.10;100.00
39793;BME280;26080;42.264;24.536;2024-02-26T05:35:20;98906.31;;;8.15;100.00
39793;BME280;26080;42.264;24.536;2024-02-26T05:37:46;98909.72;;;8.17;100.00
39793;BME280;26080;42.264;24.536;2024-02-26T05:40:12;98917.75;;;8.13;100.00
39793;BME280;26080;42.264;24.536;2024-02-26T05:42:37;98912.66;;;8.10;100.00
39793;BME280;26080;42.264;24.536;2024-02-26T05:45:03;98915.59;;;8.02;100.00
39793;BME280;26080;42.264;24.536;2024-02-26T05:47:32;98913.06;;;8.00;100.00
39793;BME280;26080;42.264;24.536;2024-02-26T05:49:58;98927.91;;;7.98;100.00
39793;BME280;26080;42.264;24.536;2024-02-26T05:52:24;98926.16;;;7.99;100.00
39793;BME280;26080;42.264;24.536;2024-02-26T05:54:50;98932.16;;;8.01;100.00
39793;BME280;26080;42.264;24.536;2024-02-26T05:57:15;98937.06;;;8.09;100.00
39793;BME280;26080;42.264;24.536;2024-02-26T05:59:40;98943.03;;;8.11;100.00
39793;BME280;26080;42.264;24.536;2024-02-26T06:02:06;98948.34;;;8.09;100.00
39793;BME280;26080;42.264;24.536;2024-02-26T06:04:31;98942.63;;;8.20;100.00
39793;BME280;26080;42.264;24.536;2024-02-26T06:06:57;98952.53;;;8.32;100.00
39793;BME280;26080;42.264;24.536;2024-02-26T06:09:22;98951.53;;;8.36;100.00
39793;BME280;26080;42.264;24.536;2024-02-26T06:11:48;98953.09;;;8.40;100.00
39793;BME280;26080;42.264;24.536;2024-02-26T06:14:13;98954.50;;;8.47;100.00
39793;BME280;26080;42.264;24.536;2024-02-26T06:16:43;98958.09;;;8.45;100.00
39793;BME280;26080;42.264;24.536;2024-02-26T06:19:08;98952.56;;;8.52;100.00
39793;BME280;26080;42.264;24.536;2024-02-26T06:21:34;98946.97;;;8.60;100.00
39793;BME280;26080;42.264;24.536;2024-02-26T06:24:01;98953.50;;;8.70;100.00
39793;BME280;26080;42.264;24.536;2024-02-26T06:26:26;98959.34;;;8.75;100.00
39793;BME280;26080;42.264;24.536;2024-02-26T06:28:54;98953.19;;;8.76;100.00
39793;BME280;26080;42.264;24.536;2024-02-26T06:31:20;98969.03;;;8.92;100.00
39793;BME280;26080;42.264;24.536;2024-02-26T06:33:48;98963.44;;;9.00;100.00
39793;BME280;26080;42.264;24.536;2024-02-26T06:36:13;98972.19;;;9.17;100.00
39793;BME280;26080;42.264;24.536;2024-02-26T06:38:38;98974.22;;;9.30;100.00
39793;BME280;26080;42.264;24.536;2024-02-26T06:41:04;98978.03;;;9.41;100.00
39793;BME280;26080;42.264;24.536;2024-02-26T06:43:29;98981.22;;;9.48;100.00
39793;BME280;26080;42.264;24.536;2024-02-26T06:45:55;98981.66;;;9.56;100.00
39793;BME280;26080;42.264;24.536;2024-02-26T06:48:22;98986.47;;;9.65;100.00
39793;BME280;26080;42.264;24.536;2024-02-26T06:50:48;98985.53;;;9.66;100.00
39793;BME280;26080;42.264;24.536;2024-02-26T06:53:13;98987.94;;;9.71;100.00
39793;BME280;26080;42.264;24.536;2024-02-26T06:55:39;98983.47;;;9.73;100.00
39793;BME280;26080;42.264;24.536;2024-02-26T06:58:06;98988.56;;;9.76;100.00
39793;BME280;26080;42.264;24.536;2024-02-26T07:00:31;98988.34;;;9.80;100.00
39793;BME280;26080;42.264;24.536;2024-02-26T07:02:57;98989.25;;;9.79;100.00
39793;BME280;26080;42.264;24.536;2024-02-26T07:05:23;98978.78;;;9.79;100.00
39793;BME280;26080;42.264;24.536;2024-02-26T07:07:48;98987.25;;;9.85;100.00
39793;BME280;26080;42.264;24.536;2024-02-26T07:10:14;98999.66;;;9.98;100.00
39793;BME280;26080;42.264;24.536;2024-02-26T07:12:39;98990.66;;;10.04;100.00
39793;BME280;26080;42.264;24.536;2024-02-26T07:15:05;98989.66;;;10.06;100.00
39793;BME280;26080;42.264;24.536;2024-02-26T07:17:33;98987.13;;;10.05;100.00
39793;BME280;26080;42.264;24.536;2024-02-26T07:19:59;98982.06;;;10.02;100.00
39793;BME280;26080;42.264;24.536;2024-02-26T07:22:25;98994.97;;;10.05;100.00
39793;BME280;26080;42.264;24.536;2024-02-26T07:24:50;98967.81;;;9.90;100.00
39793;BME280;26080;42.264;24.536;2024-02-26T07:27:17;98974.88;;;10.05;100.00
39793;BME280;26080;42.264;24.536;2024-02-26T07:29:43;98979.66;;;10.15;100.00
39793;BME280;26080;42.264;24.536;2024-02-26T07:32:08;98989.59;;;10.08;100.00
39793;BME280;26080;42.264;24.536;2024-02-26T07:34:33;98984.44;;;10.06;100.00
39793;BME280;26080;42.264;24.536;2024-02-26T07:36:59;98983.25;;;10.12;100.00
39793;BME280;26080;42.264;24.536;2024-02-26T07:39:24;98985.50;;;10.20;100.00
39793;BME280;26080;42.264;24.536;2024-02-26T07:41:50;98987.91;;;10.24;100.00
39793;BME280;26080;42.264;24.536;2024-02-26T07:44:18;98984.84;;;10.33;100.00
39793;BME280;26080;42.264;24.536;2024-02-26T07:46:44;98984.38;;;10.43;100.00
39793;BME280;26080;42.264;24.536;2024-02-26T07:49:09;98992.56;;;10.52;100.00
39793;BME280;26080;42.264;24.536;2024-02-26T07:51:34;98982.88;;;10.54;100.00
39793;BME280;26080;42.264;24.536;2024-02-26T07:54:00;98973.84;;;10.60;100.00
39793;BME280;26080;42.264;24.536;2024-02-26T07:56:26;98991.84;;;10.83;100.00
39793;BME280;26080;42.264;24.536;2024-02-26T07:58:51;98990.41;;;10.93;100.00
39793;BME280;26080;42.264;24.536;2024-02-26T08:01:17;98989.16;;;11.01;100.00
39793;BME280;26080;42.264;24.536;2024-02-26T08:03:42;98967.75;;;10.92;100.00
39793;BME280;26080;42.264;24.536;2024-02-26T08:06:08;98965.97;;;11.09;100.00
39793;BME280;26080;42.264;24.536;2024-02-26T08:08:33;98975.47;;;11.27;100.00
39793;BME280;26080;42.264;24.536;2024-02-26T08:10:59;98962.28;;;11.28;100.00
39793;BME280;26080;42.264;24.536;2024-02-26T08:13:25;98964.81;;;11.30;100.00
39793;BME280;26080;42.264;24.536;2024-02-26T08:15:51;98963.63;;;11.36;100.00
39793;BME280;26080;42.264;24.536;2024-02-26T08:18:17;98971.56;;;11.34;100.00
39793;BME280;26080;42.264;24.536;2024-02-26T08:20:42;98979.19;;;11.39;100.00
39793;BME280;26080;42.264;24.536;2024-02-26T08:23:08;98979.59;;;11.47;100.00
39793;BME280;26080;42.264;24.536;2024-02-26T08:25:33;98977.59;;;11.52;100.00
39793;BME280;26080;42.264;24.536;2024-02-26T08:27:58;98980.19;;;11.52;100.00
39793;BME280;26080;42.264;24.536;2024-02-26T08:30:24;98982.75;;;11.53;100.00
39793;BME280;26080;42.264;24.536;2024-02-26T08:32:49;98992.19;;;11.72;100.00
39793;BME280;26080;42.264;24.536;2024-02-26T08:35:15;98994.53;;;11.92;100.00
39793;BME280;26080;42.264;24.536;2024-02-26T08:37:44;98997.97;;;12.08;100.00
39793;BME280;26080;42.264;24.536;2024-02-26T08:40:10;98996.16;;;12.25;100.00
39793;BME280;26080;42.264;24.536;2024-02-26T08:42:35;98998.78;;;12.25;100.00
39793;BME280;26080;42.264;24.536;2024-02-26T08:45:02;99006.03;;;12.35;100.00
39793;BME280;26080;42.264;24.536;2024-02-26T08:47:27;99007.44;;;12.41;100.00
39793;BME280;26080;42.264;24.536;2024-02-26T08:49:53;99004.03;;;12.39;100.00
39793;BME280;26080;42.264;24.536;2024-02-26T08:52:18;98962.34;;;12.49;100.00
39793;BME280;26080;42.264;24.536;2024-02-26T08:54:44;98988.88;;;12.72;100.00
39793;BME280;26080;42.264;24.536;2024-02-26T08:57:09;98975.72;;;12.87;100.00
39793;BME280;26080;42.264;24.536;2024-02-26T08:59:35;98974.78;;;12.88;100.00
39793;BME280;26080;42.264;24.536;2024-02-26T09:02:00;98978.19;;;12.90;100.00
39793;BME280;26080;42.264;24.536;2024-02-26T09:04:25;98981.47;;;12.79;100.00
39793;BME280;26080;42.264;24.536;2024-02-26T09:06:52;98968.31;;;12.93;100.00
39793;BME280;26080;42.264;24.536;2024-02-26T09:09:19;98969.44;;;13.03;100.00
39793;BME280;26080;42.264;24.536;2024-02-26T09:11:45;98972.66;;;12.94;100.00
39793;BME280;26080;42.264;24.536;2024-02-26T09:14:10;98967.47;;;13.07;100.00
39793;BME280;26080;42.264;24.536;2024-02-26T09:16:35;98955.72;;;13.27;100.00
39793;BME280;26080;42.264;24.536;2024-02-26T09:19:01;98952.97;;;13.28;100.00
39793;BME280;26080;42.264;24.536;2024-02-26T09:21:28;98939.75;;;13.30;100.00
39793;BME280;26080;42.264;24.536;2024-02-26T09:23:53;98931.34;;;13.38;100.00
39793;BME280;26080;42.264;24.536;2024-02-26T09:26:19;98965.41;;;13.53;100.00
39793;BME280;26080;42.264;24.536;2024-02-26T09:28:45;98968.28;;;13.36;100.00
39793;BME280;26080;42.264;24.536;2024-02-26T09:31:10;98956.47;;;13.56;100.00
39793;BME280;26080;42.264;24.536;2024-02-26T09:33:36;98964.31;;;13.70;100.00
39793;BME280;26080;42.264;24.536;2024-02-26T09:36:04;98961.56;;;13.59;100.00
39793;BME280;26080;42.264;24.536;2024-02-26T09:38:29;98966.41;;;13.65;100.00
39793;BME280;26080;42.264;24.536;2024-02-26T09:40:57;98960.94;;;13.68;100.00
39793;BME280;26080;42.264;24.536;2024-02-26T09:43:27;98959.91;;;13.71;100.00
39793;BME280;26080;42.264;24.536;2024-02-26T09:45:58;98951.91;;;13.72;100.00
39793;BME280;26080;42.264;24.536;2024-02-26T09:48:24;98961.81;;;13.81;100.00
39793;BME280;26080;42.264;24.536;2024-02-26T09:50:50;98957.97;;;13.87;100.00
39793;BME280;26080;42.264;24.536;2024-02-26T09:53:16;98920.34;;;13.72;100.00
39793;BME280;26080;42.264;24.536;2024-02-26T09:55:43;98949.88;;;14.03;100.00
39793;BME280;26080;42.264;24.536;2024-02-26T09:58:08;98945.69;;;14.13;100.00
39793;BME280;26080;42.264;24.536;2024-02-26T10:00:37;98952.19;;;14.07;100.00
39793;BME280;26080;42.264;24.536;2024-02-26T10:03:05;98941.44;;;14.10;100.00
39793;BME280;26080;42.264;24.536;2024-02-26T10:05:31;98943.56;;;14.18;100.00
39793;BME280;26080;42.264;24.536;2024-02-26T10:07:59;98942.13;;;14.39;100.00
39793;BME280;26080;42.264;24.536;2024-02-26T10:10:28;98927.59;;;14.46;100.00
39793;BME280;26080;42.264;24.536;2024-02-26T10:12:54;98934.13;;;14.66;100.00
39793;BME280;26080;42.264;24.536;2024-02-26T10:15:19;98926.13;;;14.55;99.91
39793;BME280;26080;42.264;24.536;2024-02-26T10:17:44;98932.22;;;14.43;100.00
39793;BME280;26080;42.264;24.536;2024-02-26T10:20:17;98918.34;;;14.54;100.00
39793;BME280;26080;42.264;24.536;2024-02-26T10:22:46;98910.22;;;14.57;99.06
39793;BME280;26080;42.264;24.536;2024-02-26T10:25:11;98908.31;;;14.59;99.10
39793;BME280;26080;42.264;24.536;2024-02-26T10:27:37;98898.19;;;14.52;99.97
39793;BME280;26080;42.264;24.536;2024-02-26T10:30:21;98875.09;;;14.43;100.00
39793;BME280;26080;42.264;24.536;2024-02-26T10:32:48;98901.47;;;14.56;100.00
39793;BME280;26080;42.264;24.536;2024-02-26T10:35:15;98891.91;;;14.79;100.00
39793;BME280;26080;42.264;24.536;2024-02-26T10:37:42;98849.16;;;14.63;100.00
39793;BME280;26080;42.264;24.536;2024-02-26T10:40:14;98883.16;;;14.78;99.87
39793;BME280;26080;42.264;24.536;2024-02-26T10:42:41;98893.41;;;14.83;100.00
39793;BME280;26080;42.264;24.536;2024-02-26T10:45:07;98888.03;;;14.85;97.80
39793;BME280;26080;42.264;24.536;2024-02-26T10:47:36;98853.09;;;14.57;98.01
39793;BME280;26080;42.264;24.536;2024-02-26T10:50:03;98887.53;;;14.67;99.58
39793;BME280;26080;42.264;24.536;2024-02-26T10:52:34;98878.09;;;14.88;96.80
39793;BME280;26080;42.264;24.536;2024-02-26T10:55:04;98881.69;;;14.87;94.45
39793;BME280;26080;42.264;24.536;2024-02-26T10:57:35;98879.91;;;14.75;94.94
39793;BME280;26080;42.264;24.536;2024-02-26T11:00:03;98871.06;;;14.76;96.20
39793;BME280;26080;42.264;24.536;2024-02-26T11:02:34;98869.97;;;14.91;96.91
39793;BME280;26080;42.264;24.536;2024-02-26T11:05:04;98869.53;;;14.97;98.09
39793;BME280;26080;42.264;24.536;2024-02-26T11:07:31;98823.63;;;14.76;94.42
39793;BME280;26080;42.264;24.536;2024-02-26T11:09:59;98862.34;;;14.99;93.55
39793;BME280;26080;42.264;24.536;2024-02-26T11:12:25;98853.34;;;14.78;93.94
39793;BME280;26080;42.264;24.536;2024-02-26T11:14:53;98858.91;;;14.86;95.78
39793;BME280;26080;42.264;24.536;2024-02-26T11:17:21;98857.81;;;15.01;97.07
39793;BME280;26080;42.264;24.536;2024-02-26T11:19:48;98826.09;;;14.90;95.09
39793;BME280;26080;42.264;24.536;2024-02-26T11:22:14;98841.91;;;14.90;90.22
39793;BME280;26080;42.264;24.536;2024-02-26T11:24:40;98825.81;;;14.82;89.84
39793;BME280;26080;42.264;24.536;2024-02-26T11:27:09;98853.72;;;14.97;88.26
39793;BME280;26080;42.264;24.536;2024-02-26T11:29:42;98846.53;;;14.99;87.19
39793;BME280;26080;42.264;24.536;2024-02-26T11:32:09;98842.88;;;15.13;86.07
39793;BME280;26080;42.264;24.536;2024-02-26T11:34:35;98841.81;;;15.16;86.47
39793;BME280;26080;42.264;24.536;2024-02-26T11:37:14;98840.75;;;15.18;87.37
39793;BME280;26080;42.264;24.536;2024-02-26T11:39:43;98832.56;;;15.10;86.03
39793;BME280;26080;42.264;24.536;2024-02-26T11:42:14;98834.53;;;14.95;86.81
39793;BME280;26080;42.264;24.536;2024-02-26T11:44:40;98831.38;;;14.90;88.87
39793;BME280;26080;42.264;24.536;2024-02-26T11:47:36;98830.41;;;14.91;88.42
39793;BME280;26080;42.264;24.536;2024-02-26T11:50:36;98823.75;;;14.98;89.09
39793;BME280;26080;42.264;24.536;2024-02-26T11:53:30;98821.50;;;15.05;89.47
39793;BME280;26080;42.264;24.536;2024-02-26T11:59:37;98824.81;;;15.20;90.52
39793;BME280;26080;42.264;24.536;2024-02-26T12:02:02;98822.16;;;15.20;90.68
39793;BME280;26080;42.264;24.536;2024-02-26T12:04:29;98829.66;;;15.26;91.62
39793;BME280;26080;42.264;24.536;2024-02-26T12:07:04;98828.22;;;15.33;90.17
39793;BME280;26080;42.264;24.536;2024-02-26T12:09:34;98816.28;;;15.40;88.40
39793;BME280;26080;42.264;24.536;2024-02-26T12:12:07;98821.72;;;15.50;87.02
39793;BME280;26080;42.264;24.536;2024-02-26T12:14:56;98809.56;;;15.47;84.59
39793;BME280;26080;42.264;24.536;2024-02-26T12:17:21;98808.59;;;15.37;87.42
39793;BME280;26080;42.264;24.536;2024-02-26T12:19:47;98805.09;;;15.36;87.28
39793;BME280;26080;42.264;24.536;2024-02-26T12:22:15;98804.75;;;15.41;87.59
39793;BME280;26080;42.264;24.536;2024-02-26T12:24:42;98807.47;;;15.28;87.70
39793;BME280;26080;42.264;24.536;2024-02-26T12:27:07;98811.13;;;15.15;88.57
39793;BME280;26080;42.264;24.536;2024-02-26T12:29:33;98797.56;;;15.08;89.77
39793;BME280;26080;42.264;24.536;2024-02-26T12:31:58;98804.34;;;15.23;90.41
39793;BME280;26080;42.264;24.536;2024-02-26T12:34:24;98796.06;;;15.28;90.36
39793;BME280;26080;42.264;24.536;2024-02-26T12:36:50;98804.91;;;15.51;87.02
39793;BME280;26080;42.264;24.536;2024-02-26T12:39:16;98787.47;;;15.37;86.64
39793;BME280;26080;42.264;24.536;2024-02-26T12:41:41;98806.19;;;15.45;88.39
39793;BME280;26080;42.264;24.536;2024-02-26T12:44:11;98802.00;;;15.43;87.13
39793;BME280;26080;42.264;24.536;2024-02-26T12:46:37;98801.16;;;15.42;89.38
39793;BME280;26080;42.264;24.536;2024-02-26T12:49:02;98792.31;;;15.54;87.90